Time;durP1;ratioP1;P1;durP2;ratioP2;P2;SDS_P1;SDS_P2;PMS_P1;PMS_P2;Temp;Humidity;BMP_temperature;BMP_pressure;BME280_temperature;BME280_humidity;BME280_pressure;Samples;Min_cycle;Max_cycle;Signal;HPM_P1;HPM_P2
2022/10/01 00:02:00;;;;;;;20.88;15.07;;;;;;;17.08;78.72;101064.22;4987779;28;20066;-79
2022/10/01 00:04:27;;;;;;;19.60;14.45;;;;;;;17.14;79.18;101076.97;4987971;28;20047;-77
2022/10/01 00:06:53;;;;;;;21.05;14.70;;;;;;;17.17;78.69;101081.16;4987847;28;20050;-79
2022/10/01 00:09:20;;;;;;;20.58;15.10;;;;;;;17.23;77.86;101086.72;5003973;28;20078;-78
2022/10/01 00:11:47;;;;;;;21.90;15.68;;;;;;;16.97;78.48;101048.50;4987345;28;20427;-78
2022/10/01 00:14:14;;;;;;;24.85;16.58;;;;;;;17.19;78.02;101082.69;4987685;28;20364;-80
2022/10/01 00:16:40;;;;;;;26.35;17.65;;;;;;;16.99;78.64;101054.50;5003551;28;20054;-79
2022/10/01 00:19:11;;;;;;;25.13;16.40;;;;;;;17.04;78.93;101073.63;5004063;28;20054;-79
2022/10/01 00:21:38;;;;;;;27.63;17.33;;;;;;;16.93;79.00;101060.53;4987116;28;20526;-79
2022/10/01 00:24:05;;;;;;;26.40;16.92;;;;;;;17.16;77.60;101076.78;4987788;28;20145;-80
2022/10/01 00:26:34;;;;;;;26.50;16.90;;;;;;;17.30;76.99;101087.69;4987949;28;20074;-79
2022/10/01 00:29:09;;;;;;;23.33;16.45;;;;;;;17.20;77.96;101095.06;4990073;28;20064;-79
2022/10/01 00:31:35;;;;;;;26.73;17.58;;;;;;;17.02;78.50;101067.59;5008210;28;20068;-79
2022/10/01 00:34:03;;;;;;;30.60;18.73;;;;;;;17.11;78.03;101066.56;4988146;28;20097;-81
2022/10/01 00:36:31;;;;;;;27.98;18.55;;;;;;;17.18;77.82;101088.19;4986639;28;20097;-79
2022/10/01 00:39:01;;;;;;;28.67;17.90;;;;;;;15.85;78.22;100887.22;4983668;28;20082;-81
2022/10/01 00:41:33;;;;;;;31.38;20.23;;;;;;;16.86;77.91;101049.63;4969179;28;20054;-82
2022/10/01 00:44:27;;;;;;;35.55;20.73;;;;;;;16.99;78.09;101089.34;4967656;28;20058;-81
2022/10/01 00:47:00;;;;;;;31.98;21.55;;;;;;;16.95;78.04;101072.78;4969082;28;20337;-79
2022/10/01 00:49:28;;;;;;;36.45;22.48;;;;;;;16.43;78.03;100988.09;4979106;28;20060;-79
2022/10/01 00:51:58;;;;;;;38.50;22.05;;;;;;;16.95;78.50;101088.88;4988431;28;20137;-79
2022/10/01 00:54:35;;;;;;;37.92;22.88;;;;;;;16.94;78.43;101086.34;4987070;28;20129;-81
2022/10/01 00:57:05;;;;;;;36.22;23.92;;;;;;;16.86;78.86;101095.22;4987023;28;20082;-80
2022/10/01 00:59:34;;;;;;;34.88;22.77;;;;;;;16.85;78.56;101077.47;4986886;28;20061;-80
2022/10/01 01:02:01;;;;;;;36.90;23.92;;;;;;;16.68;78.63;101055.13;5002726;28;20058;-80
2022/10/01 01:04:27;;;;;;;43.30;23.88;;;;;;;16.82;79.38;101094.72;4986619;28;20050;-80
2022/10/01 01:07:01;;;;;;;43.97;22.88;;;;;;;16.33;79.72;101030.25;4986543;28;20056;-80
2022/10/01 01:09:34;;;;;;;35.80;22.98;;;;;;;16.83;79.28;101111.66;4986521;28;20506;-80
2022/10/01 01:12:09;;;;;;;38.20;23.92;;;;;;;16.91;78.24;101121.53;4988055;28;20038;-79
2022/10/01 01:14:42;;;;;;;38.97;24.27;;;;;;;16.87;78.35;101119.19;4986528;28;20054;-80
2022/10/01 01:17:18;;;;;;;38.75;23.40;;;;;;;16.54;79.04;101058.44;4986503;28;20580;-79
2022/10/01 01:20:03;;;;;;;37.97;23.80;;;;;;;16.94;78.79;101107.78;4986249;28;20499;-80
2022/10/01 01:22:33;;;;;;;43.97;24.15;;;;;;;16.42;78.91;101034.63;4986468;28;20393;-80
2022/10/01 01:25:05;;;;;;;37.80;22.70;;;;;;;16.93;79.13;101112.31;4985997;28;20153;-78
2022/10/01 01:27:43;;;;;;;;;;;;;;;16.85;78.28;101113.16;4988005;28;20071;-79
2022/10/01 01:30:15;;;;;;;33.38;21.10;;;;;;;16.58;78.20;101057.97;4986424;28;19922;-79
2022/10/01 01:32:51;;;;;;;37.70;21.83;;;;;;;16.85;77.90;101110.47;5001628;28;20058;-79
2022/10/01 01:35:28;;;;;;;35.03;20.80;;;;;;;16.73;77.85;101090.31;4986485;28;20081;-80
2022/10/01 01:38:03;;;;;;;38.58;22.73;;;;;;;16.88;77.79;101114.66;4973843;28;20059;-80
2022/10/01 01:40:35;;;;;;;44.47;25.25;;;;;;;16.94;77.65;101123.88;4966416;28;20141;-79
2022/10/01 01:43:07;;;;;;;44.05;23.83;;;;;;;16.80;77.35;101094.06;4966659;28;20233;-80
2022/10/01 01:45:38;;;;;;;43.53;25.15;;;;;;;16.61;77.22;101068.34;4966561;28;20085;-80
2022/10/01 01:48:07;;;;;;;43.78;25.45;;;;;;;16.57;77.36;101071.50;4967206;28;20101;-80
2022/10/01 01:50:41;;;;;;;44.00;24.08;;;;;;;16.91;77.62;101132.28;4986344;28;20054;-80
2022/10/01 01:53:08;;;;;;;41.50;23.55;;;;;;;16.74;78.37;101124.16;5001795;28;20187;-79
2022/10/01 01:55:35;;;;;;;40.45;24.80;;;;;;;16.93;77.63;101130.28;4985575;28;20131;-80
2022/10/01 01:58:02;;;;;;;43.67;23.88;;;;;;;16.90;77.60;101150.22;5001870;28;20141;-78
2022/10/01 02:00:29;;;;;;;46.10;24.08;;;;;;;16.82;78.23;101134.94;4986467;28;20371;-80
2022/10/01 02:02:56;;;;;;;40.33;24.08;;;;;;;16.78;78.15;101130.03;4985678;28;20060;-78
2022/10/01 02:05:27;;;;;;;46.72;25.63;;;;;;;16.73;77.31;101113.63;4985910;28;20046;-78
2022/10/01 02:08:07;;;;;;;43.47;24.33;;;;;;;16.91;77.35;101140.31;4986174;28;20310;-78
2022/10/01 02:11:01;;;;;;;46.63;25.23;;;;;;;16.98;76.92;101152.06;4985648;28;20423;-79
2022/10/01 02:13:45;;;;;;;42.97;24.45;;;;;;;16.91;77.58;101153.72;4985480;28;20050;-80
2022/10/01 02:16:29;;;;;;;44.42;25.23;;;;;;;16.83;77.77;101152.69;4985572;28;20129;-79
2022/10/01 02:19:03;;;;;;;42.40;25.50;;;;;;;16.68;77.74;101119.47;4985401;28;20451;-78
2022/10/01 02:21:55;;;;;;;48.08;25.42;;;;;;;16.91;77.17;101151.03;4986553;28;20419;-79
2022/10/01 02:24:24;;;;;;;44.60;24.95;;;;;;;16.54;76.88;101090.59;4985587;28;20050;-79
2022/10/01 02:26:54;;;;;;;44.45;24.33;;;;;;;16.93;77.36;101159.78;4986694;28;20144;-79
2022/10/01 02:29:22;;;;;;;45.20;24.88;;;;;;;16.82;77.59;101159.09;4986534;28;20510;-80
2022/10/01 02:31:54;;;;;;;37.53;22.38;;;;;;;16.72;77.48;101141.41;5001737;28;20058;-79
2022/10/01 02:34:27;;;;;;;37.80;20.77;;;;;;;16.79;78.18;101167.44;4984993;28;20055;-79
2022/10/01 02:36:56;;;;;;;36.03;22.55;;;;;;;16.80;78.31;101170.97;4981522;28;20556;-80
2022/10/01 02:39:26;;;;;;;40.30;22.33;;;;;;;16.77;78.47;101177.47;4966691;28;20073;-78
2022/10/01 02:41:56;;;;;;;36.70;21.40;;;;;;;16.74;78.90;101161.69;4969862;28;20054;-79
2022/10/01 02:44:31;;;;;;;38.25;20.63;;;;;;;16.70;79.04;101164.84;4974293;28;20137;-80
2022/10/01 02:47:00;;;;;;;29.35;19.05;;;;;;;16.73;78.98;101175.28;4970060;28;20055;-80
2022/10/01 02:49:29;;;;;;;35.22;19.73;;;;;;;16.53;78.05;101137.16;4989425;28;20076;-79
2022/10/01 02:52:14;;;;;;;34.55;19.65;;;;;;;16.81;78.14;101175.31;4988889;28;20157;-79
2022/10/01 02:54:43;;;;;;;36.72;19.70;;;;;;;16.57;78.14;101133.16;5005179;28;20054;-80
2022/10/01 02:57:22;;;;;;;35.03;19.83;;;;;;;16.75;78.56;101184.84;4989038;28;20058;-80
2022/10/01 02:59:50;;;;;;;36.20;21.65;;;;;;;16.93;77.59;101181.22;4990109;28;20671;-79
2022/10/01 03:02:18;;;;;;;39.38;21.58;;;;;;;16.85;77.77;101165.97;4989570;28;20058;-79
2022/10/01 03:04:47;;;;;;;34.00;21.23;;;;;;;16.95;77.30;101179.22;4989823;28;20070;-79
2022/10/01 03:07:15;;;;;;;35.08;21.27;;;;;;;16.86;77.83;101175.66;4989027;28;20428;-78
2022/10/01 03:09:42;;;;;;;35.28;21.77;;;;;;;16.65;77.42;101138.53;4990107;28;20046;-78
2022/10/01 03:12:09;;;;;;;31.13;19.55;;;;;;;17.02;76.52;101180.25;4988472;28;20054;-81
2022/10/01 03:14:38;;;;;;;35.10;21.13;;;;;;;16.92;76.54;101174.16;4988799;28;20494;-80
2022/10/01 03:17:06;;;;;;;31.52;18.58;;;;;;;16.76;76.63;101150.81;4988602;28;20078;-79
2022/10/01 03:19:33;;;;;;;33.33;18.63;;;;;;;16.84;75.98;101166.94;4988437;28;20691;-79
2022/10/01 03:21:59;;;;;;;29.48;17.60;;;;;;;16.71;76.94;101162.03;4988330;28;20445;-78
2022/10/01 03:24:26;;;;;;;26.98;17.27;;;;;;;16.67;77.33;101160.66;4988474;28;20050;-79
2022/10/01 03:26:57;;;;;;;30.38;17.98;;;;;;;16.65;77.21;101165.34;4988406;28;20054;-79
2022/10/01 03:29:24;;;;;;;28.38;17.42;;;;;;;16.36;78.06;101123.72;4988393;28;20069;-77
2022/10/01 03:31:51;;;;;;;26.73;15.43;;;;;;;16.76;77.29;101191.03;4988555;28;20046;-79
2022/10/01 03:34:19;;;;;;;28.63;16.88;;;;;;;16.83;76.18;101186.72;4987954;28;20423;-79
2022/10/01 03:36:45;;;;;;;25.73;15.52;;;;;;;16.69;76.89;101169.38;4985329;28;20883;-79
2022/10/01 03:39:12;;;;;;;29.98;16.70;;;;;;;16.90;75.71;101194.97;4969758;28;20063;-79
2022/10/01 03:41:39;;;;;;;25.33;15.48;;;;;;;16.85;76.04;101190.91;4968780;28;20060;-78
2022/10/01 03:44:06;;;;;;;27.55;16.00;;;;;;;16.79;76.47;101196.91;4968405;28;20372;-77
2022/10/01 03:46:32;;;;;;;24.92;14.27;;;;;;;16.79;76.25;101188.88;4968867;28;20054;-78
2022/10/01 03:48:59;;;;;;;25.50;14.73;;;;;;;16.62;76.32;101157.63;4976028;28;20531;-78
2022/10/01 03:51:30;;;;;;;21.55;14.57;;;;;;;16.66;76.55;101167.03;4987646;28;20078;-79
2022/10/01 03:53:57;;;;;;;28.50;14.47;;;;;;;16.87;75.91;101182.72;4987342;28;20601;-78
2022/10/01 03:56:24;;;;;;;25.30;14.02;;;;;;;16.88;75.78;101181.72;4987255;28;20297;-77
2022/10/01 03:58:51;;;;;;;27.10;15.68;;;;;;;16.89;76.28;101199.47;4987944;28;20726;-78
2022/10/01 04:01:17;;;;;;;32.67;14.73;;;;;;;16.55;76.18;101149.38;4987394;28;20231;-81
2022/10/01 04:03:44;;;;;;;25.35;13.35;;;;;;;16.81;76.20;101186.88;4987906;28;20047;-78
2022/10/01 04:06:11;;;;;;;25.02;15.30;;;;;;;16.75;76.53;101176.78;4987391;28;20050;-79
2022/10/01 04:08:38;;;;;;;22.98;14.40;;;;;;;16.93;76.67;101202.69;4987906;28;20061;-78
2022/10/01 04:11:05;;;;;;;21.33;12.85;;;;;;;16.92;76.50;101195.63;4987365;28;20057;-79
2022/10/01 04:13:33;;;;;;;25.92;12.95;;;;;;;16.82;75.72;101201.13;4987517;28;20076;-78
2022/10/01 04:16:01;;;;;;;19.48;11.98;;;;;;;16.44;76.86;101118.38;4987723;28;20084;-78
2022/10/01 04:18:28;;;;;;;19.33;11.55;;;;;;;16.95;75.34;101198.00;4988444;28;20511;-77
2022/10/01 04:20:54;;;;;;;19.25;11.15;;;;;;;16.92;75.06;101195.63;4987643;28;20506;-79
2022/10/01 04:23:24;;;;;;;17.70;11.07;;;;;;;16.93;74.23;101179.38;4987321;28;20145;-78
2022/10/01 04:25:50;;;;;;;16.17;10.10;;;;;;;16.92;74.41;101195.63;4984586;28;20103;-78
2022/10/01 04:28:17;;;;;;;13.73;10.07;;;;;;;16.79;74.90;101191.56;4967954;28;20078;-79
2022/10/01 04:30:45;;;;;;;20.83;11.20;;;;;;;16.80;75.08;101203.16;4967619;28;20054;-78
2022/10/01 04:33:15;;;;;;;16.02;9.98;;;;;;;16.56;75.38;101171.69;4967277;28;20054;-77
2022/10/01 04:35:43;;;;;;;14.52;10.30;;;;;;;16.72;74.20;101190.50;4967947;28;20237;-80
2022/10/01 04:38:15;;;;;;;13.10;9.23;;;;;;;16.64;74.43;101187.78;4968009;28;20050;-78
2022/10/01 04:40:42;;;;;;;12.70;9.57;;;;;;;16.23;74.96;101126.00;4968003;28;20156;-80
2022/10/01 04:43:10;;;;;;;14.60;8.95;;;;;;;16.53;75.41;101182.72;4967823;28;20061;-78
2022/10/01 04:45:37;;;;;;;11.50;8.38;;;;;;;16.38;75.01;101151.19;4967559;28;20086;-79
2022/10/01 04:48:04;;;;;;;15.00;8.90;;;;;;;16.09;75.04;101118.56;4967767;28;20453;-78
2022/10/01 04:50:32;;;;;;;10.88;8.10;;;;;;;16.07;74.65;101115.19;5003082;28;20145;-78
2022/10/01 04:52:59;;;;;;;13.40;9.02;;;;;;;16.37;74.91;101173.63;5003548;28;20185;-79
2022/10/01 04:55:25;;;;;;;16.42;14.65;;;;;;;16.27;75.56;101174.75;4991579;28;20546;-77
2022/10/01 04:57:52;;;;;;;12.68;9.50;;;;;;;16.39;75.36;101176.16;4991851;28;20077;-78
2022/10/01 05:00:23;;;;;;;14.95;9.05;;;;;;;16.40;74.65;101164.41;5005610;28;20365;-77
2022/10/01 05:02:50;;;;;;;13.90;10.03;;;;;;;16.41;75.74;101185.69;4987569;28;20116;-78
2022/10/01 05:05:19;;;;;;;12.35;9.15;;;;;;;16.30;75.98;101196.69;4987081;28;20081;-78
2022/10/01 05:07:46;;;;;;;16.45;9.70;;;;;;;16.23;76.27;101195.66;5002352;28;20054;-78
2022/10/01 05:10:16;;;;;;;13.23;9.13;;;;;;;16.01;76.30;101173.75;4988093;28;20050;-77
2022/10/01 05:12:45;;;;;;;13.32;8.98;;;;;;;16.11;76.92;101191.56;4986333;28;20262;-78
2022/10/01 05:15:12;;;;;;;11.68;8.52;;;;;;;16.00;76.95;101174.75;5002895;28;20097;-78
2022/10/01 05:17:39;;;;;;;14.60;7.43;;;;;;;16.09;75.75;101177.47;4986548;28;20054;-77
2022/10/01 05:20:07;;;;;;;9.85;7.72;;;;;;;15.91;76.15;101153.44;4986329;28;20074;-78
2022/10/01 05:22:33;;;;;;;10.55;7.40;;;;;;;15.96;76.92;101183.25;4986512;28;20054;-78
2022/10/01 05:25:01;;;;;;;11.18;7.20;;;;;;;15.96;76.66;101186.78;4986623;28;20617;-78
2022/10/01 05:27:29;;;;;;;8.60;5.80;;;;;;;16.03;75.75;101203.91;4986483;28;20515;-78
2022/10/01 05:29:56;;;;;;;7.93;5.50;;;;;;;16.06;74.86;101210.78;4986617;28;20042;-78
2022/10/01 05:32:23;;;;;;;9.52;5.57;;;;;;;16.16;74.50;101221.38;4987646;28;20066;-78
2022/10/01 05:34:49;;;;;;;8.90;5.63;;;;;;;16.09;73.97;101220.31;4987799;28;20058;-79
2022/10/01 05:37:19;;;;;;;7.07;5.15;;;;;;;16.06;73.85;101223.31;4979181;28;20298;-78
2022/10/01 05:39:46;;;;;;;6.57;4.88;;;;;;;16.07;74.01;101233.91;4966552;28;20482;-77
2022/10/01 05:42:12;;;;;;;7.38;4.38;;;;;;;15.51;74.21;101136.91;4967878;28;20134;-77
2022/10/01 05:44:44;;;;;;;6.63;4.43;;;;;;;16.16;73.80;101219.53;4966650;28;20054;-79
2022/10/01 05:47:12;;;;;;;7.28;4.20;;;;;;;16.22;72.20;101226.13;4964435;28;20109;-79
2022/10/01 05:49:41;;;;;;;5.55;4.55;;;;;;;16.21;71.77;101229.78;4980721;28;20145;-78
2022/10/01 05:52:09;;;;;;;8.50;4.13;;;;;;;16.09;73.15;101225.69;5001787;28;20056;-80
2022/10/01 05:54:36;;;;;;;9.95;4.43;;;;;;;16.07;72.34;101216.97;4985733;28;20054;-78
2022/10/01 05:57:04;;;;;;;7.07;3.88;;;;;;;15.70;72.63;101153.78;5001938;28;20401;-78
2022/10/01 05:59:30;;;;;;;6.32;4.10;;;;;;;16.08;72.44;101232.88;4985309;28;20050;-78
2022/10/01 06:01:59;;;;;;;6.45;3.85;;;;;;;15.89;72.08;101215.16;4986026;28;20141;-77
2022/10/01 06:04:30;;;;;;;5.75;4.80;;;;;;;16.06;71.81;101242.06;4986342;28;20054;-78
2022/10/01 06:06:56;;;;;;;5.80;4.20;;;;;;;15.92;72.61;101217.56;4986445;28;20052;-78
2022/10/01 06:09:23;;;;;;;6.47;4.43;;;;;;;16.06;73.56;101252.78;4985689;28;20057;-79
2022/10/01 06:11:49;;;;;;;5.60;4.15;;;;;;;15.96;73.25;101237.66;4985561;28;20536;-79
2022/10/01 06:14:16;;;;;;;7.35;4.15;;;;;;;16.10;72.52;101264.88;4979885;28;20052;-77
2022/10/01 06:16:43;;;;;;;5.07;3.72;;;;;;;15.89;73.31;101233.91;4966736;28;20511;-77
2022/10/01 06:19:10;;;;;;;4.78;4.35;;;;;;;16.13;72.63;101273.44;4965865;28;20059;-78
2022/10/01 06:21:36;;;;;;;6.25;4.18;;;;;;;16.11;73.45;101282.63;4965602;28;20055;-77
2022/10/01 06:24:04;;;;;;;5.07;4.07;;;;;;;15.95;72.81;101241.34;4966123;28;20047;-77
2022/10/01 06:26:30;;;;;;;15.05;4.57;;;;;;;16.19;72.47;101280.84;4966123;28;20685;-78
2022/10/01 06:28:57;;;;;;;5.07;3.72;;;;;;;16.27;73.48;101287.28;4981958;28;20046;-79
2022/10/01 06:31:24;;;;;;;8.27;3.67;;;;;;;16.29;73.42;101296.84;4982194;28;20047;-79
2022/10/01 06:33:50;;;;;;;3.28;2.97;;;;;;;16.39;71.58;101294.88;4981618;28;20133;-79
2022/10/01 06:36:17;;;;;;;5.38;3.25;;;;;;;16.00;70.68;101201.53;4965955;28;20086;-79
2022/10/01 06:38:47;;;;;;;3.47;3.05;;;;;;;16.14;70.49;101224.25;4982131;28;20145;-78
2022/10/01 06:41:14;;;;;;;4.70;3.28;;;;;;;16.39;71.14;101278.81;4965702;28;20144;-77
2022/10/01 06:43:41;;;;;;;3.65;2.60;;;;;;;16.63;70.52;101304.91;4966006;28;20089;-78
2022/10/01 06:46:08;;;;;;;5.03;3.40;;;;;;;16.52;69.71;101280.22;4965454;28;20059;-78
2022/10/01 06:48:36;;;;;;;7.10;3.08;;;;;;;16.43;69.97;101271.28;4970193;28;20050;-78
2022/10/01 06:51:02;;;;;;;4.80;3.35;;;;;;;16.58;71.85;101306.41;4984968;28;20046;-78
2022/10/01 06:53:32;;;;;;;7.35;3.65;;;;;;;16.64;71.55;101311.94;4985257;28;20062;-79
2022/10/01 06:56:05;;;;;;;7.63;3.95;;;;;;;16.69;71.26;101322.19;5001559;28;20050;-79
2022/10/01 06:58:32;;;;;;;4.95;3.55;;;;;;;16.61;70.80;101295.34;4980732;28;20047;-78
2022/10/01 07:01:01;;;;;;;5.32;3.25;;;;;;;16.74;70.37;101305.63;4967262;28;20173;-78
2022/10/01 07:03:29;;;;;;;4.30;3.72;;;;;;;16.80;69.97;101303.19;4965518;28;20137;-78
2022/10/01 07:06:01;;;;;;;6.15;3.15;;;;;;;16.93;69.56;101305.41;4966085;28;20050;-78
2022/10/01 07:08:28;;;;;;;;;;;;;;;17.01;68.47;101308.13;4969221;28;20050;-79
2022/10/01 07:11:01;;;;;;;4.10;2.53;;;;;;;16.99;68.40;101286.03;4971070;28;19922;-79
2022/10/01 07:13:28;;;;;;;5.97;2.58;;;;;;;17.16;68.22;101300.31;4970782;28;20134;-81
2022/10/01 07:15:55;;;;;;;2.10;1.80;;;;;;;17.09;67.27;101278.66;4992390;28;20057;-79
2022/10/01 07:18:22;;;;;;;4.03;2.40;;;;;;;17.25;67.13;101302.00;4966172;28;20053;-78
2022/10/01 07:20:49;;;;;;;3.83;2.67;;;;;;;17.00;67.11;101268.06;4974457;28;20112;-78
2022/10/01 07:23:16;;;;;;;9.48;3.00;;;;;;;17.19;66.45;101283.91;4969099;28;20193;-78
2022/10/01 07:25:43;;;;;;;2.80;2.47;;;;;;;17.28;66.28;101303.53;4974323;28;20046;-80
2022/10/01 07:28:15;;;;;;;4.65;2.80;;;;;;;17.33;66.75;101316.47;4986546;28;20422;-78
2022/10/01 07:30:56;;;;;;;4.55;2.50;;;;;;;16.32;66.78;101170.56;4985776;28;20052;-78
2022/10/01 07:33:22;;;;;;;7.20;3.28;;;;;;;17.21;67.35;101300.69;4989633;28;20092;-78
2022/10/01 07:35:49;;;;;;;3.63;2.30;;;;;;;17.22;66.85;101288.94;4988565;28;20416;-78
2022/10/01 07:38:16;;;;;;;2.35;2.15;;;;;;;17.38;67.18;101322.16;4974836;28;20046;-77
2022/10/01 07:40:53;;;;;;;3.80;2.38;;;;;;;17.44;66.75;101318.84;4968734;28;20409;-79
2022/10/01 07:43:20;;;;;;;2.70;1.90;;;;;;;17.38;66.44;101314.13;4968499;28;20062;-78
2022/10/01 07:45:48;;;;;;;5.35;2.35;;;;;;;17.44;66.42;101324.22;4975579;28;20042;-78
2022/10/01 07:48:15;;;;;;;3.42;2.30;;;;;;;17.26;66.91;101290.28;5002508;28;20266;-79
2022/10/01 07:50:45;;;;;;;2.90;2.13;;;;;;;17.46;66.16;101315.00;4967844;28;20317;-79
2022/10/01 07:53:12;;;;;;;3.40;2.20;;;;;;;17.52;66.48;101316.16;4968728;28;20095;-79
2022/10/01 07:55:40;;;;;;;5.00;3.15;;;;;;;17.33;66.42;101293.16;4973771;28;20046;-78
2022/10/01 07:58:20;;;;;;;4.13;2.35;;;;;;;16.73;65.80;101196.72;4983702;28;20043;-78
2022/10/01 08:00:57;;;;;;;5.43;2.53;;;;;;;17.24;66.53;101270.84;4979489;28;20500;-78
2022/10/01 08:03:24;;;;;;;3.80;2.30;;;;;;;17.69;65.50;101336.69;4968393;28;20152;-79
2022/10/01 08:05:52;;;;;;;5.03;2.70;;;;;;;17.77;66.04;101340.38;4968744;28;20154;-77
2022/10/01 08:08:21;;;;;;;4.90;3.08;;;;;;;17.56;66.23;101317.53;4968103;28;20131;-78
2022/10/01 08:10:49;;;;;;;7.88;2.70;;;;;;;17.50;66.87;101319.03;4970321;28;20073;-77
2022/10/01 08:13:17;;;;;;;5.80;3.60;;;;;;;17.41;66.87;101282.44;4984240;28;20329;-78
2022/10/01 08:15:49;;;;;;;4.40;3.63;;;;;;;17.06;66.75;101229.84;4980801;28;20512;-77
2022/10/01 08:18:16;;;;;;;6.97;4.38;;;;;;;17.77;66.29;101340.38;4987981;28;20425;-78
2022/10/01 08:20:43;;;;;;;8.80;4.30;;;;;;;17.79;66.14;101333.00;4988118;28;20149;-79
2022/10/01 08:23:11;;;;;;;6.75;4.20;;;;;;;17.59;66.09;101287.66;4971420;28;20202;-80
2022/10/01 08:25:39;;;;;;;7.88;4.07;;;;;;;17.71;66.52;101310.50;4986100;28;20058;-80
2022/10/01 08:28:07;;;;;;;9.23;4.25;;;;;;;17.25;66.22;101232.25;4982881;28;20057;-77
2022/10/01 08:30:37;;;;;;;7.50;4.28;;;;;;;17.66;66.18;101294.06;4974874;28;20065;-76
2022/10/01 08:33:04;;;;;;;6.32;4.30;;;;;;;18.02;66.13;101335.91;4987875;28;20080;-78
2022/10/01 08:35:31;;;;;;;10.30;4.47;;;;;;;18.06;66.40;101340.78;4969672;28;20513;-80
2022/10/01 08:38:01;;;;;;;8.52;3.95;;;;;;;18.09;66.02;101340.44;4969447;28;20058;-81
2022/10/01 08:40:35;;;;;;;6.90;4.07;;;;;;;17.92;66.81;101344.97;4967368;28;20497;-80
2022/10/01 08:43:06;;;;;;;8.25;4.57;;;;;;;17.70;66.51;101292.72;4967481;28;20074;-79
2022/10/01 08:45:39;;;;;;;7.90;4.70;;;;;;;17.52;66.69;101268.72;4967887;28;20125;-80
2022/10/01 08:48:30;;;;;;;6.50;4.40;;;;;;;18.06;66.35;101356.06;4968060;28;20105;-79
2022/10/01 08:51:06;;;;;;;5.22;4.05;;;;;;;17.90;66.73;101313.91;4987365;28;20473;-80
2022/10/01 08:53:42;;;;;;;6.75;4.10;;;;;;;18.23;66.50;101362.28;4988257;28;20042;-79
2022/10/01 08:56:45;;;;;;;5.43;4.40;;;;;;;18.29;66.05;101350.84;5003429;28;20058;-77
2022/10/01 08:59:36;;;;;;;4.40;3.72;;;;;;;18.47;65.76;101354.22;4986600;28;20097;-77
2022/10/01 09:02:24;;;;;;;8.00;4.05;;;;;;;18.67;65.21;101353.84;4986703;28;20282;-79
2022/10/01 09:05:04;;;;;;;5.70;3.70;;;;;;;18.75;65.63;101351.97;4986793;28;20057;-79
2022/10/01 09:07:50;;;;;;;7.53;4.50;;;;;;;18.88;64.35;101348.75;4987068;28;20060;-78
2022/10/01 09:10:34;;;;;;;5.18;3.53;;;;;;;19.04;64.34;101336.28;4987787;28;20547;-80
2022/10/01 09:13:03;;;;;;;7.93;3.78;;;;;;;18.79;63.96;101277.19;4985566;28;20077;-80
2022/10/01 09:15:48;;;;;;;5.72;3.97;;;;;;;19.34;63.39;101340.84;4982929;28;20066;-78
2022/10/01 09:18:41;;;;;;;4.97;3.78;;;;;;;19.43;62.85;101323.63;4973291;28;20054;-78
2022/10/01 09:21:19;;;;;;;5.35;4.43;;;;;;;19.65;62.06;101313.06;4988030;28;20481;-78
2022/10/01 09:23:57;;;;;;;6.55;4.25;;;;;;;19.89;62.71;101338.19;4992592;28;20455;-78
2022/10/01 09:26:24;;;;;;;5.78;4.70;;;;;;;20.07;61.71;101325.22;4996845;28;20050;-79
2022/10/01 09:28:54;;;;;;;8.23;4.95;;;;;;;20.26;60.78;101335.50;4991877;28;20141;-80
2022/10/01 09:31:28;;;;;;;8.80;4.82;;;;;;;19.78;60.36;101235.22;4986866;28;20054;-80
2022/10/01 09:34:12;;;;;;;6.65;4.63;;;;;;;19.79;60.57;101223.44;4986719;28;20053;-80
2022/10/01 09:37:13;;;;;;;8.32;4.15;;;;;;;20.53;61.11;101325.16;4984828;28;20141;-81
2022/10/01 09:39:43;;;;;;;8.93;5.20;;;;;;;20.68;60.61;101327.88;4969273;28;20085;-79
2022/10/01 09:42:10;;;;;;;6.32;4.90;;;;;;;20.79;59.95;101327.44;4967659;28;20477;-83
2022/10/01 09:44:36;;;;;;;5.70;4.75;;;;;;;20.70;59.75;101288.94;4969901;28;20055;-79
2022/10/01 09:47:17;;;;;;;7.45;5.03;;;;;;;20.85;60.00;101296.16;4968598;28;20137;-79
2022/10/01 09:49:45;;;;;;;9.00;5.47;;;;;;;21.16;59.47;101330.19;4981791;28;20073;-79
2022/10/01 09:52:25;;;;;;;12.13;5.82;;;;;;;21.26;58.79;101323.50;4989294;28;20057;-79
2022/10/01 09:55:18;;;;;;;13.68;5.75;;;;;;;21.37;57.74;101327.56;4986392;28;20054;-79
2022/10/01 09:57:52;;;;;;;9.30;5.28;;;;;;;20.80;58.13;101223.03;5003156;28;20058;-79
2022/10/01 10:00:24;;;;;;;7.97;5.25;;;;;;;21.51;57.46;101334.81;4989024;28;20424;-79
2022/10/01 10:02:53;;;;;;;7.03;5.50;;;;;;;21.19;57.59;101240.72;4983284;28;20149;-79
2022/10/01 10:05:21;;;;;;;10.68;7.40;;;;;;;21.88;56.86;101321.25;4999270;28;20443;-79
2022/10/01 10:08:02;;;;;;;14.38;7.45;;;;;;;21.82;56.68;101293.16;4985934;28;20073;-81
2022/10/01 10:10:38;;;;;;;11.65;6.97;;;;;;;22.09;55.62;101313.16;4982734;28;20055;-78
2022/10/01 10:13:23;;;;;;;8.52;6.55;;;;;;;22.07;56.20;101296.28;4969894;28;20046;-79
2022/10/01 10:15:52;;;;;;;11.35;8.10;;;;;;;22.02;55.78;101298.72;4966582;28;20137;-80
2022/10/01 10:18:37;;;;;;;12.07;7.95;;;;;;;21.79;55.58;101244.03;4966220;28;20047;-78
2022/10/01 10:21:11;;;;;;;10.63;8.40;;;;;;;22.22;56.31;101293.50;4967317;28;20137;-78
2022/10/01 10:23:47;;;;;;;13.90;5.95;;;;;;;22.20;54.63;101230.66;4966508;28;20050;-81
2022/10/01 10:26:38;;;;;;;10.05;6.70;;;;;;;22.20;54.15;101200.94;4967570;28;20046;-79
2022/10/01 10:29:23;;;;;;;10.18;7.32;;;;;;;22.82;54.34;101297.44;4966037;28;20477;-79
2022/10/01 10:31:50;;;;;;;11.88;8.98;;;;;;;22.98;53.83;101304.41;4969203;28;20145;-78
2022/10/01 10:34:32;;;;;;;10.40;7.32;;;;;;;23.12;54.89;101299.06;4966111;28;20248;-78
2022/10/01 10:37:04;;;;;;;10.18;8.32;;;;;;;23.13;54.82;101289.88;4967522;28;20051;-78
2022/10/01 10:39:35;;;;;;;13.25;9.60;;;;;;;23.37;54.30;101316.41;4968313;28;20070;-79
2022/10/01 10:42:04;;;;;;;12.95;10.52;;;;;;;23.32;53.89;101282.88;4984344;28;20266;-80
2022/10/01 10:44:38;;;;;;;17.60;11.15;;;;;;;23.49;53.17;101295.00;4968552;28;20098;-88
2022/10/01 10:47:10;;;;;;;16.20;10.55;;;;;;;23.63;53.35;101296.69;4967093;28;20425;-79
2022/10/01 10:49:46;;;;;;;14.30;10.77;;;;;;;23.56;52.65;101268.75;4980293;28;20084;-81
2022/10/01 10:52:20;;;;;;;12.05;9.07;;;;;;;23.89;52.83;101306.78;4987779;28;20050;-79
2022/10/01 10:54:47;;;;;;;9.50;7.82;;;;;;;23.89;51.19;101295.94;5003952;28;20057;-79
2022/10/01 10:57:32;;;;;;;12.45;9.43;;;;;;;24.03;51.05;101294.06;4987945;28;20042;-81
2022/10/01 11:00:12;;;;;;;11.43;7.75;;;;;;;24.06;51.80;101290.09;4989387;28;20050;-79
2022/10/01 11:02:51;;;;;;;12.50;9.55;;;;;;;24.31;49.47;101276.72;4988086;28;20119;-81
2022/10/01 11:05:20;;;;;;;9.10;7.38;;;;;;;24.46;49.88;101279.22;4989070;28;20121;-80
2022/10/01 11:07:51;;;;;;;11.23;7.40;;;;;;;24.45;49.99;101270.22;4994325;28;20054;-81
2022/10/01 11:10:52;;;;;;;9.23;7.22;;;;;;;23.82;49.37;101126.16;4991151;28;20054;-79
2022/10/01 11:14:29;;;;;;;12.93;8.63;;;;;;;24.10;49.27;101156.56;4969923;28;20051;-78
2022/10/01 11:20:34;;;;;;;8.38;6.78;;;;;;;24.78;47.65;101227.75;4974006;28;20050;-79
2022/10/01 11:23:21;;;;;;;14.05;7.63;;;;;;;24.60;48.72;101232.00;4969467;28;20082;-78
2022/10/01 11:25:52;;;;;;;6.65;5.90;;;;;;;24.63;48.34;101225.31;4968987;28;20134;-79
2022/10/01 11:28:25;;;;;;;7.93;6.35;;;;;;;24.58;48.66;101238.69;4954311;28;20082;-79
2022/10/01 11:31:21;;;;;;;8.38;4.85;;;;;;;24.50;48.27;101224.31;4959910;28;20054;-78
2022/10/01 11:34:21;;;;;;;5.32;4.82;;;;;;;24.31;47.32;101217.03;4983800;28;20137;-79
2022/10/01 11:37:40;;;;;;;4.43;3.85;;;;;;;23.91;49.31;101195.41;4988721;28;20409;-79
2022/10/01 11:40:17;;;;;;;6.28;4.63;;;;;;;23.66;47.71;101157.22;4970222;28;20058;-81
2022/10/01 11:42:47;;;;;;;9.20;5.35;;;;;;;23.75;48.51;101198.53;4979592;28;20081;-81